DW2959 Murcia ES current weather conditions

sailwx.info

Wind from 213

Air temperature 9.4° C
Dewpoint 5.6° C

Last reported at 2018-Feb-22 01:54 UTC.
Time now 2018-Feb-22 03:06 UTC

Location: N 38°00' W 001°02'.
View on Google Maps.

See reports from other nearby stations

  
Tides and Currents Weather Stations Pressure Air Temp Water Temp Dewpoint Dewpoint Depression Visibility Wind Speed Wind Dir Waves Ship Positions
date/time (UTC)wind fromknots sea level pressurealtimeterstation pressurevisibilityair tempwater tempwave heightnotes
2018-Feb-22 01:54 213 9.4
2018-Feb-22 01:38 213 0 gusting 3 9.4
2018-Feb-22 01:22 213 9.4
2018-Feb-22 01:08 213 0 gusting 3 8.9
2018-Feb-22 00:52 210 8.9
2018-Feb-22 00:38 082 8.3
2018-Feb-22 00:23 080 8.9
2018-Feb-22 00:07 080 8.3
2018-Feb-21 23:52 080 8.3
2018-Feb-21 23:37 080 8.9
2018-Feb-21 23:22 080 8.9
2018-Feb-21 23:06 080 9.4
2018-Feb-21 22:55 080 9.4
2018-Feb-21 22:37 080 9.4
2018-Feb-21 22:21 080 9.4
2018-Feb-21 22:07 080 9.4
2018-Feb-21 21:51 080 9.4
2018-Feb-21 21:35 080 9.4
2018-Feb-21 21:20 080 10.0
2018-Feb-21 21:06 079 10.0
2018-Feb-21 20:50 079 10.0
2018-Feb-21 20:35 087 0 gusting 8 10.6
2018-Feb-21 20:21 072 2 gusting 8 10.6
2018-Feb-21 20:05 085 2 gusting 7 10.6
2018-Feb-21 19:49 065 2 gusting 8 10.6
2018-Feb-21 19:40 065 0 gusting 7 10.6
2018-Feb-21 19:20 056 3 gusting 9 11.1
2018-Feb-21 19:04 099 1 gusting 7 11.1
2018-Feb-21 18:48 088 0 gusting 5 11.1
2018-Feb-21 18:34 077 11.1
2018-Feb-21 18:19 076 2 gusting 10 11.7
2018-Feb-21 18:04 064 2 gusting 9 12.2
2018-Feb-21 17:48 055 4 gusting 9 12.8
2018-Feb-21 17:34 088 2 gusting 12 12.8
2018-Feb-21 17:18 105 2 gusting 11 13.3
2018-Feb-21 17:04 105 0 gusting 9 13.3
2018-Feb-21 16:48 073 2 gusting 9 13.3
2018-Feb-21 16:33 101 3 gusting 10 13.3
2018-Feb-21 16:17 091 3 gusting 11 13.9
2018-Feb-21 16:03 100 5 gusting 13 14.4
2018-Feb-21 15:47 092 3 gusting 9 15.6
2018-Feb-21 15:33 065 16.1
2018-Feb-21 15:19 016 3 gusting 7 16.1
2018-Feb-21 14:31 259 16.1
2018-Feb-21 14:16 274 16.1
2018-Feb-21 14:00 267 15.6
2018-Feb-21 13:46 261 15.6
2018-Feb-21 13:30 312 4 gusting 9 16.1
2018-Feb-21 13:16 261 8 gusting 11 15.6
2018-Feb-21 13:00 284 4 gusting 11 15.0
2018-Feb-21 12:44 333 6 gusting 11 15.0
2018-Feb-21 12:30 278 5 gusting 12 14.4
2018-Feb-21 12:15 274 4 gusting 9 14.4
2018-Feb-21 12:02 319 5 gusting 11 14.4
2018-Feb-21 11:45 288 5 gusting 9 13.9
2018-Feb-21 11:30 319 3 gusting 7 13.3
2018-Feb-21 11:14 313 1 gusting 6 13.3
2018-Feb-21 10:58 277 3 gusting 7 12.8
2018-Feb-21 10:44 299 2 gusting 8 12.8
2018-Feb-21 10:29 294 4 gusting 7 12.8
2018-Feb-21 10:14 291 1 gusting 4 12.2
2018-Feb-21 09:59 288 2 gusting 6 11.7
2018-Feb-21 09:43 281 4 gusting 8 11.7
2018-Feb-21 09:28 245 1 gusting 8 11.1
2018-Feb-21 09:14 262 2 gusting 9 11.1
2018-Feb-21 08:58 273 5 gusting 11 10.6
2018-Feb-21 08:47 284 6 gusting 13 10.6
2018-Feb-21 08:28 261 6 gusting 14 10.6
2018-Feb-21 08:12 269 9 gusting 14 10.6
2018-Feb-21 07:56 257 7 gusting 15 10.6
2018-Feb-21 07:43 263 6 gusting 13 10.0
2018-Feb-21 07:28 264 5 gusting 11 10.0
2018-Feb-21 07:12 257 5 gusting 9 10.0
2018-Feb-21 06:56 269 5 gusting 8 9.4
2018-Feb-21 06:42 249 1 gusting 8 9.4
2018-Feb-21 06:26 263 1 gusting 6 9.4
2018-Feb-21 06:10 264 2 gusting 9 9.4
2018-Feb-21 05:56 238 3 gusting 9 9.4
2018-Feb-21 05:41 260 2 gusting 6 9.4
2018-Feb-21 05:25 277 6 gusting 10 10.0
2018-Feb-21 05:10 275 5 gusting 11 10.0
2018-Feb-21 04:55 265 4 gusting 8 10.0
2018-Feb-21 04:40 273 4 gusting 9 10.0
2018-Feb-21 04:26 250 3 gusting 9 10.6
2018-Feb-21 04:10 267 4 gusting 9 10.6
2018-Feb-21 03:55 256 2 gusting 10 10.6
2018-Feb-21 03:39 281 6 gusting 14 11.1
2018-Feb-21 03:25 304 6 gusting 14 11.1
2018-Feb-21 03:09 273 7 gusting 13 11.7
2018-Feb-21 02:54 288 5 gusting 12 11.7
2018-Feb-21 02:38 305 6 gusting 13 11.7
2018-Feb-21 02:23 275 6 gusting 13 12.2
2018-Feb-21 02:08 284 7 gusting 15 12.2
2018-Feb-21 01:52 296 9 gusting 14 12.8
2018-Feb-21 01:38 265 5 gusting 11 12.8
2018-Feb-21 01:23 286 6 gusting 11 12.8
2018-Feb-21 01:10 324 4 gusting 9 12.8
2018-Feb-21 00:52 293 4 gusting 9 12.8
2018-Feb-21 00:37 288 4 gusting 10 12.8
2018-Feb-21 00:22 284 3 gusting 6 12.8
2018-Feb-21 00:07 279 12.8
2018-Feb-20 23:51 279 13.3
2018-Feb-20 23:36 279 1 gusting 4 14.4
2018-Feb-20 23:22 257 3 gusting 7 14.4
2018-Feb-20 23:07 229 13.9
2018-Feb-20 22:52 234 0 gusting 6 14.4
2018-Feb-20 22:36 291 14.4
2018-Feb-20 22:22 291 15.0
2018-Feb-20 22:06 291 15.6
2018-Feb-20 21:53 291 15.6
2018-Feb-20 21:35 296 2 gusting 8 16.1
2018-Feb-20 21:20 311 3 gusting 12 16.7
2018-Feb-20 21:05 306 3 gusting 10 16.7
2018-Feb-20 20:51 319 2 gusting 9 17.2
2018-Feb-20 20:35 335 3 gusting 10 17.2
2018-Feb-20 20:19 314 3 gusting 10 17.8
2018-Feb-20 20:05 308 6 gusting 13 17.8
2018-Feb-20 19:50 306 7 gusting 14 17.8
2018-Feb-20 19:35 306 4 gusting 13 17.8
2018-Feb-20 19:19 302 4 gusting 11 17.8
2018-Feb-20 19:04 314 8 gusting 13 18.3
2018-Feb-20 18:49 285 8 gusting 13 18.9
2018-Feb-20 18:37 302 7 gusting 15 18.9
2018-Feb-20 18:18 323 6 gusting 14 19.4
2018-Feb-20 18:03 300 9 gusting 16 19.4
2018-Feb-20 17:50 306 6 gusting 11 20.0
2018-Feb-20 17:34 264 5 gusting 12 20.0
2018-Feb-20 17:18 281 5 gusting 10 20.0
2018-Feb-20 17:05 273 8 gusting 13 20.6
2018-Feb-20 16:47 281 4 gusting 13 20.6
2018-Feb-20 16:32 286 5 gusting 12 20.6
2018-Feb-20 16:17 295 4 gusting 11 20.6
2018-Feb-20 16:03 277 7 gusting 13 21.1
2018-Feb-20 15:47 271 7 gusting 13 21.1
2018-Feb-20 15:32 311 7 gusting 14 20.6
2018-Feb-20 15:22 276 3 gusting 8 20.6
2018-Feb-20 15:01 315 3 gusting 7 20.6
2018-Feb-20 14:47 319 6 gusting 13 20.6
2018-Feb-20 14:31 012 3 gusting 8 20.6
2018-Feb-20 14:15 294 2 gusting 10 20.0
2018-Feb-20 14:00 312 2 gusting 10 20.0
2018-Feb-20 13:46 302 4 gusting 9 20.0
2018-Feb-20 13:30 355 6 gusting 12 19.4
2018-Feb-20 13:15 295 5 gusting 12 19.4
2018-Feb-20 13:01 305 4 gusting 13 20.0
2018-Feb-20 12:45 335 6 gusting 13 19.4
2018-Feb-20 12:30 338 3 gusting 14 19.4
2018-Feb-20 12:15 342 7 gusting 12 18.9
2018-Feb-20 12:00 331 7 gusting 14 18.3
2018-Feb-20 11:44 324 8 gusting 13 18.3
2018-Feb-20 11:30 286 3 gusting 12 18.3
2018-Feb-20 11:15 318 3 gusting 12 17.8
2018-Feb-20 11:00 314 7 gusting 12 17.2
2018-Feb-20 10:44 302 7 gusting 13 16.7
2018-Feb-20 10:29 308 9 gusting 13 16.7
2018-Feb-20 10:14 286 6 gusting 13 16.1
2018-Feb-20 09:59 290 7 gusting 13 16.1
2018-Feb-20 09:43 286 6 gusting 13 15.6
2018-Feb-20 09:28 269 10 gusting 14 15.0
2018-Feb-20 09:13 264 5 gusting 13 13.9
2018-Feb-20 08:59 240 4 gusting 11 13.3
2018-Feb-20 08:44 243 5 gusting 10 13.3
2018-Feb-20 08:28 252 4 gusting 10 12.2
2018-Feb-20 08:13 257 6 gusting 11 11.7
2018-Feb-20 07:58
2018-Feb-20 07:43
2018-Feb-20 07:28
2018-Feb-20 07:13
2018-Feb-20 06:57
2018-Feb-20 06:43
2018-Feb-20 06:27
2018-Feb-20 06:12
2018-Feb-20 05:57
2018-Feb-20 05:41
2018-Feb-20 05:26
2018-Feb-20 05:11
2018-Feb-20 04:57
2018-Feb-20 04:41
2018-Feb-20 04:27
2018-Feb-20 04:11
2018-Feb-20 03:56
2018-Feb-20 03:42
2018-Feb-20 03:25
2018-Feb-20 03:10